sensor_id;sensor_type;location;lat;lon;timestamp;temperature;humidity
79694;DHT22;69165;52.714;13.200;2023-04-25T05:00:46;8.30;99.90
79694;DHT22;69165;52.714;13.200;2023-04-25T05:02:48;8.30;99.90
79694;DHT22;69165;52.714;13.200;2023-04-25T05:04:51;8.30;99.90
79694;DHT22;69165;52.714;13.200;2023-04-25T05:06:53;8.30;99.90
79694;DHT22;69165;52.714;13.200;2023-04-25T05:08:56;8.30;99.90
79694;DHT22;69165;52.714;13.200;2023-04-25T05:10:57;8.30;99.90
79694;DHT22;69165;52.714;13.200;2023-04-25T05:12:58;8.30;99.90
79694;DHT22;69165;52.714;13.200;2023-04-25T05:15:00;8.30;99.90
79694;DHT22;69165;52.714;13.200;2023-04-25T05:17:02;8.20;99.90
79694;DHT22;69165;52.714;13.200;2023-04-25T05:19:04;8.30;99.90
79694;DHT22;69165;52.714;13.200;2023-04-25T05:21:06;8.30;99.90
79694;DHT22;69165;52.714;13.200;2023-04-25T05:23:07;8.30;99.90
79694;DHT22;69165;52.714;13.200;2023-04-25T05:25:09;8.30;99.90
79694;DHT22;69165;52.714;13.200;2023-04-25T05:27:11;8.40;99.90
79694;DHT22;69165;52.714;13.200;2023-04-25T05:29:13;8.40;99.90
79694;DHT22;69165;52.714;13.200;2023-04-25T05:31:15;8.30;99.90
79694;DHT22;69165;52.714;13.200;2023-04-25T05:33:17;8.30;99.90
79694;DHT22;69165;52.714;13.200;2023-04-25T05:35:19;8.30;99.90
79694;DHT22;69165;52.714;13.200;2023-04-25T05:37:21;8.30;99.90
79694;DHT22;69165;52.714;13.200;2023-04-25T05:39:22;8.30;99.90
79694;DHT22;69165;52.714;13.200;2023-04-25T05:41:24;8.40;99.90
79694;DHT22;69165;52.714;13.200;2023-04-25T05:43:26;8.30;99.90
79694;DHT22;69165;52.714;13.200;2023-04-25T05:45:28;8.30;99.90
79694;DHT22;69165;52.714;13.200;2023-04-25T05:47:29;8.40;99.90
79694;DHT22;69165;52.714;13.200;2023-04-25T05:49:31;8.30;99.90
79694;DHT22;69165;52.714;13.200;2023-04-25T05:51:33;8.40;99.90
79694;DHT22;69165;52.714;13.200;2023-04-25T05:53:34;8.30;99.90
79694;DHT22;69165;52.714;13.200;2023-04-25T05:55:36;8.30;99.90
79694;DHT22;69165;52.714;13.200;2023-04-25T05:57:38;8.30;99.90
79694;DHT22;69165;52.714;13.200;2023-04-25T05:59:40;8.30;99.90
79694;DHT22;69165;52.714;13.200;2023-04-25T06:01:41;8.30;99.90
79694;DHT22;69165;52.714;13.200;2023-04-25T06:03:44;8.30;99.90
79694;DHT22;69165;52.714;13.200;2023-04-25T06:05:46;8.30;99.90
79694;DHT22;69165;52.714;13.200;2023-04-25T06:07:48;8.40;99.90
79694;DHT22;69165;52.714;13.200;2023-04-25T06:09:49;8.40;99.90
79694;DHT22;69165;52.714;13.200;2023-04-25T06:11:52;8.40;99.90
79694;DHT22;69165;52.714;13.200;2023-04-25T06:13:53;8.40;99.90
79694;DHT22;69165;52.714;13.200;2023-04-25T06:15:56;8.40;99.90
79694;DHT22;69165;52.714;13.200;2023-04-25T06:17:58;8.40;99.90
79694;DHT22;69165;52.714;13.200;2023-04-25T06:20:00;8.40;99.90
79694;DHT22;69165;52.714;13.200;2023-04-25T06:22:01;8.40;99.90
79694;DHT22;69165;52.714;13.200;2023-04-25T06:24:03;8.40;99.90
79694;DHT22;69165;52.714;13.200;2023-04-25T06:26:05;8.40;99.90
79694;DHT22;69165;52.714;13.200;2023-04-25T06:28:07;8.30;99.90
79694;DHT22;69165;52.714;13.200;2023-04-25T06:30:09;8.30;99.90
79694;DHT22;69165;52.714;13.200;2023-04-25T06:32:11;8.30;99.90
79694;DHT22;69165;52.714;13.200;2023-04-25T06:34:14;8.30;99.90
79694;DHT22;69165;52.714;13.200;2023-04-25T06:36:15;8.20;99.90
79694;DHT22;69165;52.714;13.200;2023-04-25T06:38:17;8.20;99.90
79694;DHT22;69165;52.714;13.200;2023-04-25T06:40:19;8.10;99.90
79694;DHT22;69165;52.714;13.200;2023-04-25T06:42:20;8.20;99.90
79694;DHT22;69165;52.714;13.200;2023-04-25T06:44:22;8.20;99.90
79694;DHT22;69165;52.714;13.200;2023-04-25T06:46:23;8.20;99.90
79694;DHT22;69165;52.714;13.200;2023-04-25T06:48:26;8.20;99.90
79694;DHT22;69165;52.714;13.200;2023-04-25T06:50:27;8.20;99.90
79694;DHT22;69165;52.714;13.200;2023-04-25T06:52:30;8.30;99.90
79694;DHT22;69165;52.714;13.200;2023-04-25T06:54:31;8.30;99.90
79694;DHT22;69165;52.714;13.200;2023-04-25T06:56:33;8.40;99.90
79694;DHT22;69165;52.714;13.200;2023-04-25T06:58:35;8.40;99.90
79694;DHT22;69165;52.714;13.200;2023-04-25T07:00:36;8.40;99.90
79694;DHT22;69165;52.714;13.200;2023-04-25T07:02:38;8.40;99.90
79694;DHT22;69165;52.714;13.200;2023-04-25T07:04:40;8.40;99.90
79694;DHT22;69165;52.714;13.200;2023-04-25T07:06:42;8.40;99.90
79694;DHT22;69165;52.714;13.200;2023-04-25T07:08:44;8.50;99.90
79694;DHT22;69165;52.714;13.200;2023-04-25T07:10:45;8.50;99.90
79694;DHT22;69165;52.714;13.200;2023-04-25T07:12:47;8.40;99.90
79694;DHT22;69165;52.714;13.200;2023-04-25T07:14:50;8.40;99.90
79694;DHT22;69165;52.714;13.200;2023-04-25T07:16:51;8.30;99.90
79694;DHT22;69165;52.714;13.200;2023-04-25T07:18:53;8.30;99.90
79694;DHT22;69165;52.714;13.200;2023-04-25T07:20:55;8.30;99.90
79694;DHT22;69165;52.714;13.200;2023-04-25T07:22:57;8.30;99.90
79694;DHT22;69165;52.714;13.200;2023-04-25T07:24:59;8.20;99.90
79694;DHT22;69165;52.714;13.200;2023-04-25T07:27:01;8.20;99.90
79694;DHT22;69165;52.714;13.200;2023-04-25T07:29:03;8.20;99.90
79694;DHT22;69165;52.714;13.200;2023-04-25T07:31:04;8.10;99.90
79694;DHT22;69165;52.714;13.200;2023-04-25T07:33:06;8.10;99.90
79694;DHT22;69165;52.714;13.200;2023-04-25T07:35:09;8.20;99.90
79694;DHT22;69165;52.714;13.200;2023-04-25T07:37:10;8.20;99.90
79694;DHT22;69165;52.714;13.200;2023-04-25T07:39:12;8.20;99.90
79694;DHT22;69165;52.714;13.200;2023-04-25T07:41:13;8.10;99.90
79694;DHT22;69165;52.714;13.200;2023-04-25T07:43:15;8.10;99.90
79694;DHT22;69165;52.714;13.200;2023-04-25T07:45:17;7.80;99.90
79694;DHT22;69165;52.714;13.200;2023-04-25T07:47:20;7.90;99.90
79694;DHT22;69165;52.714;13.200;2023-04-25T07:49:22;7.90;99.90
79694;DHT22;69165;52.714;13.200;2023-04-25T07:51:24;8.10;99.90
79694;DHT22;69165;52.714;13.200;2023-04-25T07:53:26;8.10;99.90
79694;DHT22;69165;52.714;13.200;2023-04-25T07:55:28;8.10;99.90
79694;DHT22;69165;52.714;13.200;2023-04-25T07:57:30;8.30;99.90
79694;DHT22;69165;52.714;13.200;2023-04-25T07:59:32;8.30;99.90
79694;DHT22;69165;52.714;13.200;2023-04-25T08:01:33;8.30;99.90
79694;DHT22;69165;52.714;13.200;2023-04-25T08:03:35;8.30;99.90
79694;DHT22;69165;52.714;13.200;2023-04-25T08:05:36;8.30;99.90
79694;DHT22;69165;52.714;13.200;2023-04-25T08:07:38;8.40;99.90
79694;DHT22;69165;52.714;13.200;2023-04-25T08:09:40;8.40;99.90
79694;DHT22;69165;52.714;13.200;2023-04-25T08:11:41;8.40;99.90
79694;DHT22;69165;52.714;13.200;2023-04-25T08:13:43;8.40;99.90
79694;DHT22;69165;52.714;13.200;2023-04-25T08:15:45;8.40;99.90
79694;DHT22;69165;52.714;13.200;2023-04-25T08:17:47;8.40;99.90
79694;DHT22;69165;52.714;13.200;2023-04-25T08:19:49;8.40;99.90
79694;DHT22;69165;52.714;13.200;2023-04-25T08:21:51;8.40;99.90
79694;DHT22;69165;52.714;13.200;2023-04-25T08:23:54;8.50;99.90
79694;DHT22;69165;52.714;13.200;2023-04-25T08:25:56;8.50;99.90
79694;DHT22;69165;52.714;13.200;2023-04-25T08:27:59;8.60;99.90
79694;DHT22;69165;52.714;13.200;2023-04-25T08:30:01;8.60;99.90
79694;DHT22;69165;52.714;13.200;2023-04-25T08:32:02;8.80;99.90
79694;DHT22;69165;52.714;13.200;2023-04-25T08:34:03;8.70;99.90
79694;DHT22;69165;52.714;13.200;2023-04-25T08:36:06;8.60;99.90
79694;DHT22;69165;52.714;13.200;2023-04-25T08:38:08;8.60;99.90
79694;DHT22;69165;52.714;13.200;2023-04-25T08:40:11;8.60;99.90
79694;DHT22;69165;52.714;13.200;2023-04-25T08:42:12;8.70;99.90
79694;DHT22;69165;52.714;13.200;2023-04-25T08:44:13;8.80;99.90
79694;DHT22;69165;52.714;13.200;2023-04-25T08:46:17;9.10;99.90
79694;DHT22;69165;52.714;13.200;2023-04-25T08:48:18;9.00;99.90
79694;DHT22;69165;52.714;13.200;2023-04-25T08:50:19;9.20;99.90
79694;DHT22;69165;52.714;13.200;2023-04-25T08:52:22;9.20;99.90
79694;DHT22;69165;52.714;13.200;2023-04-25T08:54:24;9.10;99.90
79694;DHT22;69165;52.714;13.200;2023-04-25T08:56:27;9.20;99.90
79694;DHT22;69165;52.714;13.200;2023-04-25T08:58:28;9.20;99.90
79694;DHT22;69165;52.714;13.200;2023-04-25T09:00:29;9.20;99.90
79694;DHT22;69165;52.714;13.200;2023-04-25T09:02:31;9.10;99.90
79694;DHT22;69165;52.714;13.200;2023-04-25T09:04:33;9.00;99.90
79694;DHT22;69165;52.714;13.200;2023-04-25T09:06:35;9.00;99.90
79694;DHT22;69165;52.714;13.200;2023-04-25T09:08:37;9.00;99.90
79694;DHT22;69165;52.714;13.200;2023-04-25T09:10:40;9.10;99.90
79694;DHT22;69165;52.714;13.200;2023-04-25T09:12:40;9.30;99.90
79694;DHT22;69165;52.714;13.200;2023-04-25T09:14:41;9.40;99.90
79694;DHT22;69165;52.714;13.200;2023-04-25T09:16:58;9.70;99.90
79694;DHT22;69165;52.714;13.200;2023-04-25T09:19:01;10.40;99.90
79694;DHT22;69165;52.714;13.200;2023-04-25T09:21:08;10.40;99.90
79694;DHT22;69165;52.714;13.200;2023-04-25T09:23:09;10.30;99.90
79694;DHT22;69165;52.714;13.200;2023-04-25T09:25:11;10.20;99.90
79694;DHT22;69165;52.714;13.200;2023-04-25T09:27:20;9.80;99.90
79694;DHT22;69165;52.714;13.200;2023-04-25T09:29:14;9.70;99.90
79694;DHT22;69165;52.714;13.200;2023-04-25T09:31:21;9.60;99.90
79694;DHT22;69165;52.714;13.200;2023-04-25T09:33:32;9.30;99.90
79694;DHT22;69165;52.714;13.200;2023-04-25T09:35:36;9.30;99.90
79694;DHT22;69165;52.714;13.200;2023-04-25T09:37:37;9.30;99.90
79694;DHT22;69165;52.714;13.200;2023-04-25T09:39:39;9.40;99.90
79694;DHT22;69165;52.714;13.200;2023-04-25T09:41:42;9.40;99.90
79694;DHT22;69165;52.714;13.200;2023-04-25T09:43:44;9.50;99.90
79694;DHT22;69165;52.714;13.200;2023-04-25T09:45:46;9.40;99.90
79694;DHT22;69165;52.714;13.200;2023-04-25T09:47:47;9.40;99.90
79694;DHT22;69165;52.714;13.200;2023-04-25T09:49:49;9.20;99.90
79694;DHT22;69165;52.714;13.200;2023-04-25T09:51:54;9.10;99.90
79694;DHT22;69165;52.714;13.200;2023-04-25T09:53:56;9.50;99.90
79694;DHT22;69165;52.714;13.200;2023-04-25T09:55:58;9.50;99.90
79694;DHT22;69165;52.714;13.200;2023-04-25T09:58:00;9.90;99.90
79694;DHT22;69165;52.714;13.200;2023-04-25T10:00:01;10.30;99.90
79694;DHT22;69165;52.714;13.200;2023-04-25T10:02:03;10.20;99.90
79694;DHT22;69165;52.714;13.200;2023-04-25T10:04:05;10.60;99.90
79694;DHT22;69165;52.714;13.200;2023-04-25T10:06:07;10.60;99.90
79694;DHT22;69165;52.714;13.200;2023-04-25T10:08:09;10.80;99.90
79694;DHT22;69165;52.714;13.200;2023-04-25T10:10:11;11.10;99.90
79694;DHT22;69165;52.714;13.200;2023-04-25T10:12:13;11.40;99.90
79694;DHT22;69165;52.714;13.200;2023-04-25T10:14:14;11.40;99.90
79694;DHT22;69165;52.714;13.200;2023-04-25T10:16:16;11.30;99.70
79694;DHT22;69165;52.714;13.200;2023-04-25T10:18:17;10.80;99.90
79694;DHT22;69165;52.714;13.200;2023-04-25T10:20:19;10.40;99.10
79694;DHT22;69165;52.714;13.200;2023-04-25T10:22:23;10.20;99.80
79694;DHT22;69165;52.714;13.200;2023-04-25T10:24:22;10.20;99.90
79694;DHT22;69165;52.714;13.200;2023-04-25T10:26:24;10.20;99.90
79694;DHT22;69165;52.714;13.200;2023-04-25T10:28:26;10.70;99.90
79694;DHT22;69165;52.714;13.200;2023-04-25T10:30:28;10.60;99.90
79694;DHT22;69165;52.714;13.200;2023-04-25T10:32:31;10.30;99.90
79694;DHT22;69165;52.714;13.200;2023-04-25T10:34:38;10.00;99.90
79694;DHT22;69165;52.714;13.200;2023-04-25T10:36:39;9.80;99.90
79694;DHT22;69165;52.714;13.200;2023-04-25T10:38:42;9.60;99.90
79694;DHT22;69165;52.714;13.200;2023-04-25T10:41:02;9.40;99.90
79694;DHT22;69165;52.714;13.200;2023-04-25T10:42:45;9.40;99.90
79694;DHT22;69165;52.714;13.200;2023-04-25T10:45:00;9.30;99.60
79694;DHT22;69165;52.714;13.200;2023-04-25T10:46:48;9.20;99.80
79694;DHT22;69165;52.714;13.200;2023-04-25T10:48:51;9.20;99.90
79694;DHT22;69165;52.714;13.200;2023-04-25T10:51:33;9.10;99.60
79694;DHT22;69165;52.714;13.200;2023-04-25T10:53:18;9.20;98.70
79694;DHT22;69165;52.714;13.200;2023-04-25T10:55:20;9.10;98.70
79694;DHT22;69165;52.714;13.200;2023-04-25T10:57:31;9.20;98.70
79694;DHT22;69165;52.714;13.200;2023-04-25T10:59:32;9.20;98.70
79694;DHT22;69165;52.714;13.200;2023-04-25T11:01:37;9.20;98.80
79694;DHT22;69165;52.714;13.200;2023-04-25T11:03:42;9.30;99.30
79694;DHT22;69165;52.714;13.200;2023-04-25T11:05:43;9.40;99.90
79694;DHT22;69165;52.714;13.200;2023-04-25T11:07:49;9.50;99.40
79694;DHT22;69165;52.714;13.200;2023-04-25T11:09:49;9.60;99.10
79694;DHT22;69165;52.714;13.200;2023-04-25T11:11:54;9.50;99.10
79694;DHT22;69165;52.714;13.200;2023-04-25T11:13:56;9.40;99.90
79694;DHT22;69165;52.714;13.200;2023-04-25T11:15:58;9.40;99.90
79694;DHT22;69165;52.714;13.200;2023-04-25T11:17:59;9.40;99.90
79694;DHT22;69165;52.714;13.200;2023-04-25T11:20:01;9.50;99.90
79694;DHT22;69165;52.714;13.200;2023-04-25T11:22:03;9.60;99.90
79694;DHT22;69165;52.714;13.200;2023-04-25T11:24:05;9.80;99.90
79694;DHT22;69165;52.714;13.200;2023-04-25T11:26:06;9.80;99.90
79694;DHT22;69165;52.714;13.200;2023-04-25T11:28:08;9.90;99.90
79694;DHT22;69165;52.714;13.200;2023-04-25T11:30:17;9.90;99.90
79694;DHT22;69165;52.714;13.200;2023-04-25T11:32:18;9.70;99.40
79694;DHT22;69165;52.714;13.200;2023-04-25T11:34:21;9.70;99.40
79694;DHT22;69165;52.714;13.200;2023-04-25T11:36:23;9.50;99.10
79694;DHT22;69165;52.714;13.200;2023-04-25T11:38:25;9.50;99.10
79694;DHT22;69165;52.714;13.200;2023-04-25T11:40:27;9.50;99.70
79694;DHT22;69165;52.714;13.200;2023-04-25T11:42:28;9.50;99.60
79694;DHT22;69165;52.714;13.200;2023-04-25T11:44:30;9.50;99.40
79694;DHT22;69165;52.714;13.200;2023-04-25T11:46:33;9.50;99.10
79694;DHT22;69165;52.714;13.200;2023-04-25T11:48:39;9.50;99.90
79694;DHT22;69165;52.714;13.200;2023-04-25T11:50:41;9.50;99.80
79694;DHT22;69165;52.714;13.200;2023-04-25T11:52:45;9.50;99.90
79694;DHT22;69165;52.714;13.200;2023-04-25T11:54:46;9.50;99.90
79694;DHT22;69165;52.714;13.200;2023-04-25T11:56:48;9.50;99.90
79694;DHT22;69165;52.714;13.200;2023-04-25T11:58:57;9.60;99.90
79694;DHT22;69165;52.714;13.200;2023-04-25T12:00:58;9.80;99.90
79694;DHT22;69165;52.714;13.200;2023-04-25T12:03:01;10.00;99.90
79694;DHT22;69165;52.714;13.200;2023-04-25T12:05:07;10.10;99.90
79694;DHT22;69165;52.714;13.200;2023-04-25T12:07:09;10.10;99.90
79694;DHT22;69165;52.714;13.200;2023-04-25T12:09:11;10.10;99.90
79694;DHT22;69165;52.714;13.200;2023-04-25T12:11:20;10.00;99.90
79694;DHT22;69165;52.714;13.200;2023-04-25T12:13:23;9.90;99.90
79694;DHT22;69165;52.714;13.200;2023-04-25T12:15:24;9.80;99.90
79694;DHT22;69165;52.714;13.200;2023-04-25T12:17:28;9.90;99.90
79694;DHT22;69165;52.714;13.200;2023-04-25T12:19:34;9.80;99.90
79694;DHT22;69165;52.714;13.200;2023-04-25T12:21:36;9.80;99.90
79694;DHT22;69165;52.714;13.200;2023-04-25T12:23:38;9.80;99.90
79694;DHT22;69165;52.714;13.200;2023-04-25T12:25:42;9.90;99.90
79694;DHT22;69165;52.714;13.200;2023-04-25T12:27:44;9.80;99.90
79694;DHT22;69165;52.714;13.200;2023-04-25T12:29:51;9.80;99.90
79694;DHT22;69165;52.714;13.200;2023-04-25T12:31:53;9.80;99.90
79694;DHT22;69165;52.714;13.200;2023-04-25T12:33:55;9.80;99.90
79694;DHT22;69165;52.714;13.200;2023-04-25T12:35:56;9.80;99.90
79694;DHT22;69165;52.714;13.200;2023-04-25T12:37:58;9.60;99.90
79694;DHT22;69165;52.714;13.200;2023-04-25T12:39:59;9.60;99.90
79694;DHT22;69165;52.714;13.200;2023-04-25T12:42:02;9.70;99.90
79694;DHT22;69165;52.714;13.200;2023-04-25T12:44:03;9.70;99.90
79694;DHT22;69165;52.714;13.200;2023-04-25T12:46:06;9.50;99.90
79694;DHT22;69165;52.714;13.200;2023-04-25T12:48:08;9.30;99.90
79694;DHT22;69165;52.714;13.200;2023-04-25T12:50:10;9.20;99.90
79694;DHT22;69165;52.714;13.200;2023-04-25T12:52:12;9.20;99.90
79694;DHT22;69165;52.714;13.200;2023-04-25T12:54:14;9.10;99.90
79694;DHT22;69165;52.714;13.200;2023-04-25T12:56:16;9.00;99.90
79694;DHT22;69165;52.714;13.200;2023-04-25T12:58:18;9.00;99.90
79694;DHT22;69165;52.714;13.200;2023-04-25T13:00:20;9.00;99.90
79694;DHT22;69165;52.714;13.200;2023-04-25T13:02:22;9.10;99.90
79694;DHT22;69165;52.714;13.200;2023-04-25T13:04:23;9.10;99.90
79694;DHT22;69165;52.714;13.200;2023-04-25T13:06:26;9.20;99.90
79694;DHT22;69165;52.714;13.200;2023-04-25T13:08:28;9.10;99.90
79694;DHT22;69165;52.714;13.200;2023-04-25T13:10:30;9.10;99.90
79694;DHT22;69165;52.714;13.200;2023-04-25T13:12:31;9.00;99.90
79694;DHT22;69165;52.714;13.200;2023-04-25T13:14:33;9.00;99.90
79694;DHT22;69165;52.714;13.200;2023-04-25T13:16:34;8.90;99.90
79694;DHT22;69165;52.714;13.200;2023-04-25T13:18:36;8.90;99.90
79694;DHT22;69165;52.714;13.200;2023-04-25T13:20:38;8.80;99.90
79694;DHT22;69165;52.714;13.200;2023-04-25T13:22:41;8.90;99.90
79694;DHT22;69165;52.714;13.200;2023-04-25T13:24:43;8.80;99.90
79694;DHT22;69165;52.714;13.200;2023-04-25T13:26:45;8.90;99.90
79694;DHT22;69165;52.714;13.200;2023-04-25T13:28:47;8.90;99.90
79694;DHT22;69165;52.714;13.200;2023-04-25T13:30:49;8.90;99.90
79694;DHT22;69165;52.714;13.200;2023-04-25T13:32:51;8.90;99.90
79694;DHT22;69165;52.714;13.200;2023-04-25T13:34:52;8.90;99.90
79694;DHT22;69165;52.714;13.200;2023-04-25T13:36:54;8.80;99.90
79694;DHT22;69165;52.714;13.200;2023-04-25T13:38:55;8.90;99.90
79694;DHT22;69165;52.714;13.200;2023-04-25T13:40:57;8.90;99.90
79694;DHT22;69165;52.714;13.200;2023-04-25T13:42:59;8.90;99.90
79694;DHT22;69165;52.714;13.200;2023-04-25T13:45:01;8.90;99.90
79694;DHT22;69165;52.714;13.200;2023-04-25T13:47:03;8.80;99.90
79694;DHT22;69165;52.714;13.200;2023-04-25T13:49:04;9.00;99.90
79694;DHT22;69165;52.714;13.200;2023-04-25T13:51:06;9.10;99.90
79694;DHT22;69165;52.714;13.200;2023-04-25T13:53:07;9.10;99.90
79694;DHT22;69165;52.714;13.200;2023-04-25T13:55:10;9.20;99.90
79694;DHT22;69165;52.714;13.200;2023-04-25T13:57:11;9.20;99.90
79694;DHT22;69165;52.714;13.200;2023-04-25T13:59:13;9.20;99.90
79694;DHT22;69165;52.714;13.200;2023-04-25T14:01:15;9.20;99.90
79694;DHT22;69165;52.714;13.200;2023-04-25T14:03:16;9.20;99.90
79694;DHT22;69165;52.714;13.200;2023-04-25T14:05:18;9.10;99.90
79694;DHT22;69165;52.714;13.200;2023-04-25T14:07:20;9.10;99.90
79694;DHT22;69165;52.714;13.200;2023-04-25T14:09:22;9.10;99.90
79694;DHT22;69165;52.714;13.200;2023-04-25T14:11:24;9.10;99.90
79694;DHT22;69165;52.714;13.200;2023-04-25T14:13:25;9.10;99.90
79694;DHT22;69165;52.714;13.200;2023-04-25T14:15:27;9.00;99.90
79694;DHT22;69165;52.714;13.200;2023-04-25T14:17:28;8.90;99.90
79694;DHT22;69165;52.714;13.200;2023-04-25T14:19:30;8.80;99.90
79694;DHT22;69165;52.714;13.200;2023-04-25T14:21:32;8.80;99.90
79694;DHT22;69165;52.714;13.200;2023-04-25T14:23:33;8.90;99.90
79694;DHT22;69165;52.714;13.200;2023-04-25T14:25:35;8.90;99.90
79694;DHT22;69165;52.714;13.200;2023-04-25T14:27:37;8.90;99.90
79694;DHT22;69165;52.714;13.200;2023-04-25T14:29:39;8.90;99.90
79694;DHT22;69165;52.714;13.200;2023-04-25T14:31:40;8.90;99.90
79694;DHT22;69165;52.714;13.200;2023-04-25T14:33:42;8.90;99.90
79694;DHT22;69165;52.714;13.200;2023-04-25T14:35:44;8.90;99.90
79694;DHT22;69165;52.714;13.200;2023-04-25T14:37:45;8.90;99.90
79694;DHT22;69165;52.714;13.200;2023-04-25T14:39:47;8.90;99.90
79694;DHT22;69165;52.714;13.200;2023-04-25T14:41:48;8.90;99.90
79694;DHT22;69165;52.714;13.200;2023-04-25T14:43:51;8.90;99.90
79694;DHT22;69165;52.714;13.200;2023-04-25T14:45:53;9.00;99.90
79694;DHT22;69165;52.714;13.200;2023-04-25T14:47:55;8.90;99.90
79694;DHT22;69165;52.714;13.200;2023-04-25T14:49:56;9.00;99.90
79694;DHT22;69165;52.714;13.200;2023-04-25T14:51:58;9.10;99.90
79694;DHT22;69165;52.714;13.200;2023-04-25T14:54:00;9.40;99.90
79694;DHT22;69165;52.714;13.200;2023-04-25T14:56:04;9.50;99.90
79694;DHT22;69165;52.714;13.200;2023-04-25T14:58:06;9.50;99.90
79694;DHT22;69165;52.714;13.200;2023-04-25T15:00:08;9.50;99.90
79694;DHT22;69165;52.714;13.200;2023-04-25T15:02:10;9.60;99.90
79694;DHT22;69165;52.714;13.200;2023-04-25T15:04:11;9.70;99.90
79694;DHT22;69165;52.714;13.200;2023-04-25T15:06:13;9.90;99.90
79694;DHT22;69165;52.714;13.200;2023-04-25T15:08:15;10.10;99.90
79694;DHT22;69165;52.714;13.200;2023-04-25T15:10:17;10.10;99.90
79694;DHT22;69165;52.714;13.200;2023-04-25T15:12:18;10.10;99.90
79694;DHT22;69165;52.714;13.200;2023-04-25T15:14:21;10.10;99.90
79694;DHT22;69165;52.714;13.200;2023-04-25T15:16:24;10.10;99.90
79694;DHT22;69165;52.714;13.200;2023-04-25T15:18:26;10.10;99.90
79694;DHT22;69165;52.714;13.200;2023-04-25T15:20:27;10.30;99.90
79694;DHT22;69165;52.714;13.200;2023-04-25T15:22:29;10.30;99.90
79694;DHT22;69165;52.714;13.200;2023-04-25T15:24:30;10.20;99.90
79694;DHT22;69165;52.714;13.200;2023-04-25T15:26:32;10.10;99.90
79694;DHT22;69165;52.714;13.200;2023-04-25T15:28:34;10.00;99.90
79694;DHT22;69165;52.714;13.200;2023-04-25T15:30:35;9.90;99.90
79694;DHT22;69165;52.714;13.200;2023-04-25T15:32:37;9.80;99.90
79694;DHT22;69165;52.714;13.200;2023-04-25T15:34:39;9.60;99.90
79694;DHT22;69165;52.714;13.200;2023-04-25T15:36:41;9.60;99.90
79694;DHT22;69165;52.714;13.200;2023-04-25T15:38:42;9.60;99.90
79694;DHT22;69165;52.714;13.200;2023-04-25T15:40:44;9.60;99.90
79694;DHT22;69165;52.714;13.200;2023-04-25T15:42:47;9.60;99.90
79694;DHT22;69165;52.714;13.200;2023-04-25T15:44:48;9.60;99.90
79694;DHT22;69165;52.714;13.200;2023-04-25T15:46:49;9.60;99.90
79694;DHT22;69165;52.714;13.200;2023-04-25T15:48:51;9.50;99.90
79694;DHT22;69165;52.714;13.200;2023-04-25T15:50:53;9.50;99.90
79694;DHT22;69165;52.714;13.200;2023-04-25T15:52:54;9.50;99.90
79694;DHT22;69165;52.714;13.200;2023-04-25T15:54:56;9.50;99.90
79694;DHT22;69165;52.714;13.200;2023-04-25T15:56:57;9.50;99.90
79694;DHT22;69165;52.714;13.200;2023-04-25T15:59:00;9.50;99.90
79694;DHT22;69165;52.714;13.200;2023-04-25T16:01:02;9.30;99.90
79694;DHT22;69165;52.714;13.200;2023-04-25T16:03:05;9.20;99.90
79694;DHT22;69165;52.714;13.200;2023-04-25T16:05:07;9.20;99.90
79694;DHT22;69165;52.714;13.200;2023-04-25T16:07:09;9.20;99.90
79694;DHT22;69165;52.714;13.200;2023-04-25T16:09:11;9.20;99.90
79694;DHT22;69165;52.714;13.200;2023-04-25T16:11:12;9.10;99.90
79694;DHT22;69165;52.714;13.200;2023-04-25T16:13:14;9.00;99.90
79694;DHT22;69165;52.714;13.200;2023-04-25T16:15:16;9.00;99.90
79694;DHT22;69165;52.714;13.200;2023-04-25T16:17:17;9.00;99.90
79694;DHT22;69165;52.714;13.200;2023-04-25T16:19:19;9.10;99.90
79694;DHT22;69165;52.714;13.200;2023-04-25T16:21:21;9.10;99.90
79694;DHT22;69165;52.714;13.200;2023-04-25T16:23:23;9.10;99.90
79694;DHT22;69165;52.714;13.200;2023-04-25T16:25:25;9.10;99.90
79694;DHT22;69165;52.714;13.200;2023-04-25T16:27:27;9.10;99.90
79694;DHT22;69165;52.714;13.200;2023-04-25T16:29:29;9.10;99.90
79694;DHT22;69165;52.714;13.200;2023-04-25T16:31:30;9.30;99.90
79694;DHT22;69165;52.714;13.200;2023-04-25T16:33:32;9.40;99.90
79694;DHT22;69165;52.714;13.200;2023-04-25T16:35:33;9.50;99.90
79694;DHT22;69165;52.714;13.200;2023-04-25T16:37:35;9.60;99.90
79694;DHT22;69165;52.714;13.200;2023-04-25T16:39:37;9.60;99.90
79694;DHT22;69165;52.714;13.200;2023-04-25T16:41:38;9.70;99.90
79694;DHT22;69165;52.714;13.200;2023-04-25T16:43:40;9.50;99.90
79694;DHT22;69165;52.714;13.200;2023-04-25T16:45:42;9.50;99.90
79694;DHT22;69165;52.714;13.200;2023-04-25T16:47:44;9.40;99.90
79694;DHT22;69165;52.714;13.200;2023-04-25T16:49:45;9.30;99.90
79694;DHT22;69165;52.714;13.200;2023-04-25T16:51:48;9.40;99.90
79694;DHT22;69165;52.714;13.200;2023-04-25T16:53:50;9.40;99.90
79694;DHT22;69165;52.714;13.200;2023-04-25T16:55:53;9.40;99.90
79694;DHT22;69165;52.714;13.200;2023-04-25T16:57:55;9.40;99.90
79694;DHT22;69165;52.714;13.200;2023-04-25T16:59:57;9.40;99.90
79694;DHT22;69165;52.714;13.200;2023-04-25T17:01:59;9.40;99.90
79694;DHT22;69165;52.714;13.200;2023-04-25T17:04:01;9.40;99.90
79694;DHT22;69165;52.714;13.200;2023-04-25T17:06:02;9.30;99.90
79694;DHT22;69165;52.714;13.200;2023-04-25T17:08:05;9.40;99.90
79694;DHT22;69165;52.714;13.200;2023-04-25T17:10:07;9.30;99.90
79694;DHT22;69165;52.714;13.200;2023-04-25T17:12:08;9.30;99.90
79694;DHT22;69165;52.714;13.200;2023-04-25T17:14:10;9.30;99.90
79694;DHT22;69165;52.714;13.200;2023-04-25T17:16:12;9.20;99.90
79694;DHT22;69165;52.714;13.200;2023-04-25T17:18:15;9.10;99.90
79694;DHT22;69165;52.714;13.200;2023-04-25T17:20:17;9.00;99.90
79694;DHT22;69165;52.714;13.200;2023-04-25T17:22:19;9.10;99.90
79694;DHT22;69165;52.714;13.200;2023-04-25T17:24:20;9.00;99.90
79694;DHT22;69165;52.714;13.200;2023-04-25T17:26:22;8.90;99.90
79694;DHT22;69165;52.714;13.200;2023-04-25T17:28:24;8.80;99.90
79694;DHT22;69165;52.714;13.200;2023-04-25T17:30:25;8.80;99.90
79694;DHT22;69165;52.714;13.200;2023-04-25T17:32:27;8.80;99.90
79694;DHT22;69165;52.714;13.200;2023-04-25T17:34:28;8.70;99.90
79694;DHT22;69165;52.714;13.200;2023-04-25T17:36:30;8.70;99.90
79694;DHT22;69165;52.714;13.200;2023-04-25T17:38:32;8.60;99.90
79694;DHT22;69165;52.714;13.200;2023-04-25T17:40:33;8.70;99.90
79694;DHT22;69165;52.714;13.200;2023-04-25T17:42:35;8.70;99.90
79694;DHT22;69165;52.714;13.200;2023-04-25T17:44:37;8.70;99.90
79694;DHT22;69165;52.714;13.200;2023-04-25T17:46:39;8.60;99.90
79694;DHT22;69165;52.714;13.200;2023-04-25T17:48:41;8.60;99.90
79694;DHT22;69165;52.714;13.200;2023-04-25T17:50:42;8.60;99.90